createdAt,value
2018-09-05T00:01:35.624Z,4.97
2018-09-05T00:04:02.890Z,6.47
2018-09-05T00:06:30.164Z,6.50
2018-09-05T00:08:57.435Z,5.17
2018-09-05T00:11:24.828Z,6.03
2018-09-05T00:13:52.231Z,6.03
2018-09-05T00:16:19.666Z,7.33
2018-09-05T00:18:48.826Z,5.47
2018-09-05T00:24:06.348Z,5.83
2018-09-05T00:26:33.831Z,6.37
2018-09-05T00:29:01.135Z,6.87
2018-09-05T00:31:28.405Z,9.03
2018-09-05T00:33:55.667Z,4.37
2018-09-05T00:36:22.923Z,7.20
2018-09-05T00:38:50.221Z,9.80
2018-09-05T00:41:17.452Z,6.70
2018-09-05T00:43:44.727Z,9.83
2018-09-05T00:46:12.983Z,7.20
2018-09-05T00:48:40.261Z,9.40
2018-09-05T00:51:07.531Z,6.17
2018-09-05T00:53:34.780Z,7.23
2018-09-05T00:56:02.060Z,6.63
2018-09-05T00:58:29.330Z,7.03
2018-09-05T01:00:56.705Z,5.73
2018-09-05T01:03:23.986Z,7.33
2018-09-05T01:05:51.270Z,7.53
2018-09-05T01:08:18.570Z,5.20
2018-09-05T01:10:45.845Z,6.23
2018-09-05T01:13:13.145Z,5.47
2018-09-05T01:15:41.123Z,6.67
2018-09-05T01:18:08.367Z,6.37
2018-09-05T01:20:35.905Z,5.83
2018-09-05T01:23:03.244Z,6.83
2018-09-05T01:25:30.524Z,5.03
2018-09-05T01:27:58.510Z,5.73
2018-09-05T01:30:28.543Z,7.00
2018-09-05T01:32:57.201Z,11.10
2018-09-05T01:35:24.836Z,8.37
2018-09-05T01:37:52.150Z,5.83
2018-09-05T01:40:19.495Z,6.83
2018-09-05T01:42:46.801Z,7.80
2018-09-05T01:45:15.110Z,7.50
2018-09-05T01:47:42.372Z,5.80
2018-09-05T01:50:09.666Z,8.03
2018-09-05T01:52:36.902Z,8.50
2018-09-05T01:55:04.194Z,6.27
2018-09-05T01:57:31.428Z,8.17
2018-09-05T01:59:58.722Z,8.10
2018-09-05T02:02:25.981Z,6.23
2018-09-05T02:04:53.983Z,6.10
2018-09-05T02:07:21.290Z,9.77
2018-09-05T02:09:48.751Z,5.77
2018-09-05T02:12:15.980Z,6.97
2018-09-05T02:14:43.232Z,7.50
2018-09-05T02:17:10.551Z,6.53
2018-09-05T02:19:37.842Z,7.97
2018-09-05T02:22:05.100Z,7.50
2018-09-05T02:24:32.356Z,6.83
2018-09-05T02:26:59.580Z,8.77
2018-09-05T02:29:26.840Z,6.53
2018-09-05T02:31:54.224Z,8.07
2018-09-05T02:34:21.507Z,7.43
2018-09-05T02:36:48.743Z,10.63
2018-09-05T02:39:16.015Z,7.03
2018-09-05T02:41:43.249Z,8.70
2018-09-05T02:44:16.258Z,6.57
2018-09-05T02:46:43.672Z,7.37
2018-09-05T02:49:10.936Z,10.20
2018-09-05T02:51:38.471Z,9.27
2018-09-05T02:54:05.723Z,7.77
2018-09-05T02:56:33.036Z,10.67
2018-09-05T02:59:00.385Z,12.10
2018-09-05T03:01:27.635Z,10.13
2018-09-05T03:03:54.859Z,8.93
2018-09-05T03:06:22.151Z,8.47
2018-09-05T03:08:49.475Z,11.33
2018-09-05T03:11:16.783Z,9.57
2018-09-05T03:13:44.058Z,14.90
2018-09-05T03:16:13.115Z,8.00
2018-09-05T03:18:40.414Z,8.13
2018-09-05T03:21:08.863Z,8.70
2018-09-05T03:23:37.345Z,12.70
2018-09-05T03:26:05.662Z,8.80
2018-09-05T03:28:32.950Z,7.60
2018-09-05T03:31:00.242Z,8.20
2018-09-05T03:33:27.559Z,7.63
2018-09-05T03:35:54.828Z,9.80
2018-09-05T03:38:22.063Z,8.13
2018-09-05T03:40:49.327Z,7.07
2018-09-05T03:43:16.619Z,8.57
2018-09-05T03:45:43.932Z,8.57
2018-09-05T03:48:11.237Z,8.53
2018-09-05T03:50:38.533Z,9.20
2018-09-05T03:53:05.786Z,11.87
2018-09-05T03:55:33.051Z,8.07
2018-09-05T03:58:00.289Z,7.80
2018-09-05T04:00:31.661Z,10.97
2018-09-05T04:02:59.595Z,9.07
2018-09-05T04:05:26.868Z,8.20
2018-09-05T04:07:54.175Z,7.43
2018-09-05T04:10:23.347Z,14.27
2018-09-05T04:12:50.663Z,14.40
2018-09-05T04:15:18.020Z,9.33
2018-09-05T04:17:45.380Z,10.10
2018-09-05T04:20:13.786Z,10.50
2018-09-05T04:22:41.238Z,10.17
2018-09-05T04:25:08.615Z,8.77
2018-09-05T04:27:36.027Z,7.97
2018-09-05T04:30:03.945Z,8.63
2018-09-05T04:32:31.602Z,9.33
2018-09-05T04:34:59.026Z,14.90
2018-09-05T04:37:28.587Z,8.67
2018-09-05T04:39:56.017Z,12.00
2018-09-05T04:42:23.569Z,9.63
2018-09-05T04:44:50.910Z,9.73
2018-09-05T04:47:18.350Z,9.83
2018-09-05T04:49:45.704Z,10.97
2018-09-05T04:52:13.344Z,13.33
2018-09-05T04:54:40.940Z,11.90
2018-09-05T04:57:08.568Z,10.10
2018-09-05T04:59:36.153Z,13.13
2018-09-05T05:02:03.559Z,11.97
2018-09-05T05:04:31.032Z,15.83
2018-09-05T05:06:58.439Z,10.67
2018-09-05T05:09:25.844Z,22.80
2018-09-05T05:11:54.174Z,13.60
2018-09-05T05:14:21.569Z,10.70
2018-09-05T05:16:48.989Z,12.80
2018-09-05T05:19:16.426Z,15.67
2018-09-05T05:21:44.387Z,12.73
2018-09-05T05:24:11.788Z,13.33
2018-09-05T05:26:39.213Z,10.77
2018-09-05T05:29:06.542Z,11.83
2018-09-05T05:31:34.209Z,14.00
2018-09-05T05:34:01.700Z,12.33
2018-09-05T05:36:29.652Z,12.23
2018-09-05T05:38:57.636Z,13.43
2018-09-05T05:41:25.149Z,10.87
2018-09-05T05:43:52.679Z,10.17
2018-09-05T05:46:20.079Z,14.17
2018-09-05T05:48:47.624Z,10.43
2018-09-05T05:51:15.114Z,14.73
2018-09-05T05:53:42.499Z,13.00
2018-09-05T05:56:09.871Z,11.87
2018-09-05T05:58:37.267Z,9.10
2018-09-05T06:01:04.740Z,10.00
2018-09-05T06:03:32.081Z,11.37
2018-09-05T06:06:00.085Z,11.80
2018-09-05T06:08:27.437Z,13.47
2018-09-05T06:10:55.517Z,15.37
2018-09-05T06:13:22.913Z,13.93
2018-09-05T06:15:50.398Z,14.13
2018-09-05T06:18:17.839Z,11.27
2018-09-05T06:20:45.832Z,11.80
2018-09-05T06:23:13.185Z,11.07
2018-09-05T06:25:40.644Z,14.80
2018-09-05T06:28:08.695Z,12.13
2018-09-05T06:30:36.311Z,15.03
2018-09-05T06:33:04.557Z,14.13
2018-09-05T06:35:31.936Z,11.60
2018-09-05T06:37:59.319Z,11.03
2018-09-05T06:40:27.380Z,12.17
2018-09-05T06:42:55.687Z,17.47
2018-09-05T06:45:23.213Z,13.17
2018-09-05T06:47:50.610Z,10.90
2018-09-05T06:50:17.923Z,14.97
2018-09-05T06:52:45.246Z,12.73
2018-09-05T06:55:12.687Z,14.87
2018-09-05T06:57:40.105Z,11.77
2018-09-05T07:00:07.703Z,12.70
2018-09-05T07:02:35.185Z,15.50
2018-09-05T07:05:03.452Z,11.70
2018-09-05T07:07:30.903Z,12.77
2018-09-05T07:09:58.310Z,12.37
2018-09-05T07:12:25.704Z,15.37
2018-09-05T07:14:53.392Z,15.50
2018-09-05T07:17:21.470Z,15.23
2018-09-05T07:19:49.276Z,13.30
2018-09-05T07:22:16.683Z,13.97
2018-09-05T07:24:44.039Z,12.73
2018-09-05T07:27:11.399Z,14.70
2018-09-05T07:29:39.399Z,15.70
2018-09-05T07:32:07.061Z,13.40
2018-09-05T07:34:34.476Z,13.67
2018-09-05T07:37:01.938Z,16.17
2018-09-05T07:39:29.369Z,19.13
2018-09-05T07:41:56.744Z,17.17
2018-09-05T07:44:24.848Z,13.93
2018-09-05T07:46:52.822Z,15.70
2018-09-05T07:49:20.732Z,14.03
2018-09-05T07:51:49.424Z,14.65
2018-09-05T07:54:16.839Z,14.47
2018-09-05T07:56:44.285Z,11.60
2018-09-05T07:59:11.850Z,16.25
2018-09-05T08:01:39.534Z,16.25
2018-09-05T08:04:07.408Z,19.10
2018-09-05T08:06:35.558Z,14.35
2018-09-05T08:09:04.601Z,13.10
2018-09-05T08:11:31.981Z,15.08
2018-09-05T08:13:59.451Z,15.88
2018-09-05T08:16:26.794Z,14.05
2018-09-05T08:18:54.990Z,13.50
2018-09-05T08:21:23.503Z,17.40
2018-09-05T08:23:50.861Z,12.25
2018-09-05T08:26:18.234Z,13.90
2018-09-05T08:28:46.409Z,13.00
2018-09-05T08:31:14.046Z,12.55
2018-09-05T08:33:41.461Z,14.85
2018-09-05T08:36:09.656Z,12.68
2018-09-05T08:38:37.066Z,14.68
2018-09-05T08:41:09.351Z,16.95
2018-09-05T08:43:37.809Z,14.68
2018-09-05T08:46:05.749Z,14.28
2018-09-05T08:48:33.527Z,13.28
2018-09-05T08:51:01.406Z,12.50
2018-09-05T08:53:28.787Z,12.23
2018-09-05T08:55:56.226Z,13.15
2018-09-05T08:58:23.711Z,14.13
2018-09-05T09:00:51.053Z,11.68
2018-09-05T09:03:18.707Z,11.18
2018-09-05T09:05:46.387Z,11.28
2018-09-05T09:08:13.854Z,14.43
2018-09-05T09:10:41.289Z,14.33
2018-09-05T09:13:08.752Z,13.58
2018-09-05T09:15:36.465Z,9.88
2018-09-05T09:18:03.943Z,9.00
2018-09-05T09:20:31.495Z,11.83
2018-09-05T09:22:59.071Z,10.60
2018-09-05T09:25:26.452Z,10.43
2018-09-05T09:27:54.041Z,27.55
2018-09-05T09:30:21.734Z,12.13
2018-09-05T09:32:49.313Z,10.90
2018-09-05T09:35:16.873Z,11.05
2018-09-05T09:37:44.233Z,12.80
2018-09-05T09:40:11.664Z,13.13
2018-09-05T09:42:39.122Z,9.70
2018-09-05T09:45:06.796Z,10.25
2018-09-05T09:47:34.299Z,12.00
2018-09-05T09:50:01.901Z,10.35
2018-09-05T09:52:29.453Z,9.73
2018-09-05T09:54:56.989Z,10.95
2018-09-05T09:57:24.549Z,9.85
2018-09-05T09:59:52.080Z,9.23
2018-09-05T10:02:25.139Z,12.43
2018-09-05T10:04:58.257Z,12.30
2018-09-05T10:07:31.199Z,13.13
2018-09-05T10:10:04.512Z,9.00
2018-09-05T10:12:37.525Z,10.38
2018-09-05T10:15:11.919Z,11.08
2018-09-05T10:17:39.239Z,12.28
2018-09-05T10:20:06.838Z,11.88
2018-09-05T10:22:34.714Z,12.30
2018-09-05T10:25:02.868Z,10.98
2018-09-05T10:27:30.302Z,15.25
2018-09-05T10:29:58.224Z,10.60
2018-09-05T10:32:25.915Z,9.78
2018-09-05T10:34:54.071Z,10.98
2018-09-05T10:37:21.766Z,8.80
2018-09-05T10:39:49.145Z,8.48
2018-09-05T10:42:16.569Z,7.97
2018-09-05T10:44:43.959Z,7.92
2018-09-05T10:47:11.355Z,8.73
2018-09-05T10:49:38.679Z,8.65
2018-09-05T10:52:07.820Z,13.05
2018-09-05T10:54:35.182Z,7.50
2018-09-05T10:57:03.534Z,15.00
2018-09-05T10:59:30.946Z,8.93
2018-09-05T11:01:58.963Z,9.75
2018-09-05T11:04:26.633Z,8.55
2018-09-05T11:06:54.813Z,10.48
2018-09-05T11:09:22.186Z,9.80
2018-09-05T11:11:49.760Z,9.40
2018-09-05T11:14:17.018Z,13.88
2018-09-05T11:16:44.367Z,8.88
2018-09-05T11:19:11.763Z,10.58
2018-09-05T11:21:39.442Z,9.60
2018-09-05T11:24:07.057Z,12.25
2018-09-05T11:26:34.508Z,9.03
2018-09-05T11:29:01.973Z,8.25
2018-09-05T11:31:29.324Z,9.15
2018-09-05T11:33:56.671Z,10.08
2018-09-05T11:36:25.591Z,9.60
2018-09-05T11:38:53.883Z,9.98
2018-09-05T11:41:22.406Z,10.40
2018-09-05T11:43:50.269Z,11.63
2018-09-05T11:46:17.698Z,7.70
2018-09-05T11:48:45.114Z,8.40
2018-09-05T11:51:12.552Z,8.78
2018-09-05T11:53:40.667Z,11.60
2018-09-05T11:56:08.479Z,8.35
2018-09-05T11:58:35.951Z,10.30
2018-09-05T12:01:03.453Z,10.03
2018-09-05T12:03:30.794Z,11.75
2018-09-05T12:05:58.160Z,10.08
2018-09-05T12:08:26.160Z,10.38
2018-09-05T12:10:53.580Z,8.90
2018-09-05T12:13:21.127Z,8.35
2018-09-05T12:15:49.615Z,10.18
2018-09-05T12:18:17.178Z,8.58
2018-09-05T12:20:45.213Z,8.60
2018-09-05T12:23:12.890Z,15.35
2018-09-05T12:25:40.275Z,10.18
2018-09-05T12:28:07.685Z,10.63
2018-09-05T12:30:35.277Z,9.28
2018-09-05T12:33:02.836Z,7.92
2018-09-05T12:35:30.342Z,7.83
2018-09-05T12:37:57.882Z,7.47
2018-09-05T12:40:27.459Z,6.47
2018-09-05T12:42:56.141Z,11.45
2018-09-05T12:45:24.865Z,7.03
2018-09-05T12:47:52.335Z,9.10
2018-09-05T12:50:19.845Z,6.60
2018-09-05T12:52:48.132Z,6.80
2018-09-05T12:55:15.719Z,7.62
2018-09-05T12:57:43.211Z,7.87
2018-09-05T13:00:10.838Z,11.93
2018-09-05T13:02:38.337Z,9.83
2018-09-05T13:05:06.102Z,8.38
2018-09-05T13:07:35.067Z,8.10
2018-09-05T13:10:02.570Z,7.37
2018-09-05T13:12:30.225Z,8.60
2018-09-05T13:14:57.650Z,9.90
2018-09-05T13:17:25.297Z,8.23
2018-09-05T13:19:52.860Z,6.62
2018-09-05T13:22:20.305Z,7.30
2018-09-05T13:24:47.694Z,7.67
2018-09-05T13:27:15.138Z,6.28
2018-09-05T13:29:42.663Z,8.40
2018-09-05T13:32:10.778Z,8.13
2018-09-05T13:34:38.229Z,8.20
2018-09-05T13:37:05.724Z,10.63
2018-09-05T13:39:34.096Z,8.75
2018-09-05T13:42:01.529Z,8.43
2018-09-05T13:44:28.948Z,7.17
2018-09-05T13:46:56.604Z,7.67
2018-09-05T13:49:24.079Z,9.23
2018-09-05T13:51:57.203Z,7.22
2018-09-05T13:54:24.783Z,6.10
2018-09-05T13:56:52.248Z,6.35
2018-09-05T13:59:19.705Z,12.80
2018-09-05T14:01:47.823Z,8.30
2018-09-05T14:04:15.269Z,6.40
2018-09-05T14:06:42.719Z,6.85
2018-09-05T14:09:11.496Z,7.25
2018-09-05T14:11:39.168Z,9.80
2018-09-05T14:14:07.977Z,7.83
2018-09-05T14:16:37.137Z,6.85
2018-09-05T14:19:04.589Z,10.15
2018-09-05T14:21:32.500Z,9.88
2018-09-05T14:23:59.912Z,8.30
2018-09-05T14:26:27.414Z,6.47
2018-09-05T14:28:54.839Z,7.10
2018-09-05T14:31:22.566Z,8.40
2018-09-05T14:33:50.170Z,6.83
2018-09-05T14:36:18.530Z,7.55
2018-09-05T14:38:45.952Z,7.67
2018-09-05T14:41:13.414Z,7.75
2018-09-05T14:43:41.546Z,6.70
2018-09-05T14:46:09.543Z,7.58
2018-09-05T14:48:37.390Z,7.50
2018-09-05T14:51:05.100Z,6.65
2018-09-05T14:53:32.535Z,7.72
2018-09-05T14:55:59.969Z,7.00
2018-09-05T14:58:27.425Z,8.38
2018-09-05T15:00:56.159Z,7.47
2018-09-05T15:03:23.765Z,9.73
2018-09-05T15:05:51.235Z,10.58
2018-09-05T15:08:19.441Z,7.87
2018-09-05T15:10:47.486Z,9.20
2018-09-05T15:13:14.922Z,9.20
2018-09-05T15:15:42.391Z,8.53
2018-09-05T15:18:09.882Z,7.20
2018-09-05T15:20:37.841Z,8.10
2018-09-05T15:23:05.633Z,9.33
2018-09-05T15:25:33.072Z,6.85
2018-09-05T15:28:00.494Z,9.15
2018-09-05T15:30:28.022Z,7.62
2018-09-05T15:32:55.596Z,7.30
2018-09-05T15:35:24.251Z,7.08
2018-09-05T15:37:52.135Z,6.87
2018-09-05T15:40:20.027Z,9.45
2018-09-05T15:42:47.507Z,8.50
2018-09-05T15:45:25.400Z,7.85
2018-09-05T15:48:01.308Z,8.33
2018-09-05T15:50:28.564Z,7.53
2018-09-05T15:52:56.189Z,8.48
2018-09-05T15:55:37.027Z,6.42
2018-09-05T15:58:04.886Z,6.97
2018-09-05T16:00:32.897Z,6.15
2018-09-05T16:03:00.316Z,10.35
2018-09-05T16:05:28.272Z,6.92
2018-09-05T16:07:55.812Z,8.23
2018-09-05T16:10:23.259Z,7.08
2018-09-05T16:12:50.765Z,10.23
2018-09-05T16:15:18.995Z,6.87
2018-09-05T16:17:46.388Z,6.45
2018-09-05T16:20:13.768Z,7.10
2018-09-05T16:22:42.778Z,6.45
2018-09-05T16:25:11.198Z,8.90
2018-09-05T16:27:38.614Z,7.65
2018-09-05T16:30:06.097Z,7.67
2018-09-05T16:32:34.208Z,7.10
2018-09-05T16:35:02.620Z,6.90
2018-09-05T16:37:30.076Z,9.05
2018-09-05T16:39:57.849Z,9.28
2018-09-05T16:42:27.730Z,6.40
2018-09-05T16:44:55.691Z,6.22
2018-09-05T16:47:24.059Z,5.72
2018-09-05T16:49:51.624Z,6.10
2018-09-05T16:52:19.198Z,6.78
2018-09-05T16:54:46.524Z,6.42
2018-09-05T16:57:14.073Z,10.10
2018-09-05T16:59:41.438Z,5.85
2018-09-05T17:02:09.366Z,9.68
2018-09-05T17:04:37.627Z,7.20
2018-09-05T17:07:06.116Z,10.13
2018-09-05T17:09:33.667Z,7.77
2018-09-05T17:12:01.180Z,7.37
2018-09-05T17:14:30.656Z,9.03
2018-09-05T17:17:00.002Z,6.25
2018-09-05T17:19:28.302Z,6.42
2018-09-05T17:21:56.902Z,9.57
2018-09-05T17:24:24.355Z,6.00
2018-09-05T17:26:51.771Z,7.22
2018-09-05T17:29:19.133Z,6.90
2018-09-05T17:31:46.660Z,8.18
2018-09-05T17:34:14.140Z,6.50
2018-09-05T17:36:41.928Z,8.03
2018-09-05T17:39:10.678Z,7.28
2018-09-05T17:41:38.130Z,8.45
2018-09-05T17:44:05.901Z,6.00
2018-09-05T17:46:33.224Z,8.57
2018-09-05T17:49:00.488Z,8.87
2018-09-05T17:51:27.856Z,8.83
2018-09-05T17:53:55.226Z,7.77
2018-09-05T17:56:23.976Z,6.33
2018-09-05T17:58:52.356Z,5.70
2018-09-05T18:01:22.098Z,9.07
2018-09-05T18:03:49.570Z,7.43
2018-09-05T18:06:16.983Z,5.97
2018-09-05T18:08:44.322Z,8.00
2018-09-05T18:11:12.173Z,7.80
2018-09-05T18:13:42.863Z,6.53
2018-09-05T18:16:13.069Z,6.20
2018-09-05T18:18:40.479Z,11.27
2018-09-05T18:21:07.820Z,6.20
2018-09-05T18:23:35.210Z,9.30
2018-09-05T18:26:02.713Z,7.87
2018-09-05T18:28:29.989Z,6.13
2018-09-05T18:30:57.300Z,7.20
2018-09-05T18:33:26.622Z,10.50
2018-09-05T18:35:54.259Z,8.40
2018-09-05T18:38:22.559Z,7.23
2018-09-05T18:40:51.646Z,8.37
2018-09-05T18:43:20.562Z,6.87
2018-09-05T18:45:48.230Z,6.73
2018-09-05T18:48:16.978Z,11.00
2018-09-05T18:50:45.277Z,6.40
2018-09-05T18:53:14.210Z,10.23
2018-09-05T18:55:44.114Z,7.57
2018-09-05T18:58:13.001Z,9.30
2018-09-05T19:00:40.591Z,5.40
2018-09-05T19:03:10.811Z,9.07
2018-09-05T19:05:38.320Z,8.20
2018-09-05T19:08:06.949Z,7.73
2018-09-05T19:10:34.954Z,5.83
2018-09-05T19:13:02.880Z,6.30
2018-09-05T19:15:30.610Z,8.43
2018-09-05T19:17:58.671Z,5.93
2018-09-05T19:20:26.761Z,7.83
2018-09-05T19:22:55.732Z,5.90
2018-09-05T19:25:23.927Z,9.07
2018-09-05T19:27:51.641Z,8.90
2018-09-05T19:30:19.409Z,9.13
2018-09-05T19:32:47.066Z,6.57
2018-09-05T19:35:14.684Z,7.93
2018-09-05T19:37:42.209Z,7.90
2018-09-05T19:40:16.817Z,5.73
2018-09-05T19:42:44.246Z,7.13
2018-09-05T19:45:12.516Z,7.00
2018-09-05T19:47:40.394Z,5.60
2018-09-05T19:50:07.923Z,6.10
2018-09-05T19:52:36.516Z,7.53
2018-09-05T19:55:03.882Z,8.60
2018-09-05T19:57:31.316Z,8.17
2018-09-05T19:59:58.804Z,6.33
2018-09-05T20:02:26.993Z,7.13
2018-09-05T20:04:54.657Z,8.07
2018-09-05T20:07:22.284Z,6.83
2018-09-05T20:09:49.950Z,9.03
2018-09-05T20:12:17.358Z,5.43
2018-09-05T20:14:44.712Z,6.80
2018-09-05T20:17:12.118Z,6.17
2018-09-05T20:19:40.483Z,6.47
2018-09-05T20:22:08.925Z,6.73
2018-09-05T20:24:36.586Z,7.63
2018-09-05T20:27:05.040Z,8.37
2018-09-05T20:29:33.422Z,11.90
2018-09-05T20:32:02.292Z,9.27
2018-09-05T20:34:29.934Z,8.90
2018-09-05T20:36:57.438Z,5.77
2018-09-05T20:39:24.900Z,7.67
2018-09-05T20:41:52.769Z,15.20
2018-09-05T20:44:20.034Z,8.33
2018-09-05T20:46:47.315Z,5.37
2018-09-05T20:49:14.616Z,5.53
2018-09-05T20:51:41.866Z,7.23
2018-09-05T20:54:09.761Z,5.60
2018-09-05T20:56:37.167Z,13.57
2018-09-05T20:59:04.972Z,5.57
2018-09-05T21:01:32.250Z,6.83
2018-09-05T21:03:59.472Z,6.37
2018-09-05T21:06:26.858Z,6.33
2018-09-05T21:08:54.159Z,7.23
2018-09-05T21:11:21.400Z,8.63
2018-09-05T21:13:48.768Z,6.50
2018-09-05T21:16:16.503Z,9.03
2018-09-05T21:18:43.740Z,5.90
2018-09-05T21:21:11.019Z,8.07
2018-09-05T21:23:38.251Z,6.17
2018-09-05T21:26:05.542Z,5.13
2018-09-05T21:28:32.823Z,13.30
2018-09-05T21:31:00.070Z,7.23
2018-09-05T21:33:27.429Z,7.67
2018-09-05T21:35:54.738Z,6.53
2018-09-05T21:38:21.998Z,10.47
2018-09-05T21:40:49.278Z,9.53
2018-09-05T21:43:16.561Z,6.57
2018-09-05T21:45:43.894Z,7.53
2018-09-05T21:48:11.314Z,8.07
2018-09-05T21:50:38.571Z,9.40
2018-09-05T21:53:05.949Z,11.30
2018-09-05T21:55:33.625Z,9.63
2018-09-05T21:58:01.012Z,6.27
2018-09-05T22:00:28.396Z,10.17
2018-09-05T22:02:55.759Z,9.43
2018-09-05T22:05:23.966Z,5.43
2018-09-05T22:07:51.235Z,7.90
2018-09-05T22:10:18.517Z,7.03
2018-09-05T22:12:45.777Z,6.93
2018-09-05T22:15:13.016Z,7.27
2018-09-05T22:17:40.405Z,8.13
2018-09-05T22:20:07.707Z,6.67
2018-09-05T22:22:35.086Z,7.97
2018-09-05T22:25:02.518Z,8.33
2018-09-05T22:27:29.818Z,10.13
2018-09-05T22:29:57.067Z,6.37
2018-09-05T22:32:24.716Z,9.63
2018-09-05T22:34:53.770Z,8.50
2018-09-05T22:37:21.953Z,8.13
2018-09-05T22:39:49.175Z,7.00
2018-09-05T22:42:16.415Z,7.93
2018-09-05T22:44:55.740Z,8.00
2018-09-05T22:48:39.954Z,7.53
2018-09-05T22:53:40.240Z,8.10
2018-09-05T22:58:27.407Z,8.23
2018-09-05T23:01:11.268Z,8.87
2018-09-05T23:05:56.940Z,9.63
2018-09-05T23:08:33.231Z,8.50
2018-09-05T23:11:19.100Z,7.80
2018-09-05T23:14:03.775Z,7.80
2018-09-05T23:16:42.376Z,6.50
2018-09-05T23:19:32.268Z,10.47
2018-09-05T23:21:59.592Z,7.50
2018-09-05T23:24:26.988Z,7.73
2018-09-05T23:26:54.463Z,7.47
2018-09-05T23:29:21.809Z,7.50
2018-09-05T23:31:49.861Z,8.63
2018-09-05T23:34:17.216Z,7.37
2018-09-05T23:36:44.544Z,10.00
2018-09-05T23:39:11.940Z,9.53
2018-09-05T23:41:39.456Z,12.03
2018-09-05T23:44:07.049Z,11.10
2018-09-05T23:46:34.341Z,7.20
2018-09-05T23:49:01.634Z,9.23
2018-09-05T23:51:28.959Z,6.97
2018-09-05T23:53:56.250Z,8.90
2018-09-05T23:56:24.169Z,8.80
2018-09-05T23:58:51.427Z,9.40
